Time;durP1;ratioP1;P1;durP2;ratioP2;P2;SDS_P1;SDS_P2;PMS_P1;PMS_P2;Temp;Humidity;BMP_temperature;BMP_pressure;BME280_temperature;BME280_humidity;BME280_pressure;Samples;Min_cycle;Max_cycle;Signal;HPM_P1;HPM_P2
2022/04/04 00:00:35;;;;;;;6.72;4.03;;;;;;;;;;5107316;28;20131;-63
2022/04/04 00:03:01;;;;;;;8.48;3.47;;;;;;;;;;5094532;28;20515;-62
2022/04/04 00:05:27;;;;;;;9.10;3.72;;;;;;;;;;5087149;28;20044;-63
2022/04/04 00:07:53;;;;;;;7.75;3.35;;;;;;;;;;5087393;28;20036;-63
2022/04/04 00:10:19;;;;;;;6.45;3.70;;;;;;;;;;5087207;28;20052;-63
2022/04/04 00:12:45;;;;;;;5.53;4.03;;;;;;;;;;5087021;28;20032;-63
2022/04/04 00:15:12;;;;;;;4.43;2.97;;;;;;;;;;5086976;28;20446;-63
2022/04/04 00:17:38;;;;;;;3.88;2.88;;;;;;;;;;5103866;28;20044;-63
2022/04/04 00:20:05;;;;;;;5.65;3.60;;;;;;;;;;5107037;28;20065;-63
2022/04/04 00:22:32;;;;;;;4.43;3.13;;;;;;;;;;5107299;28;20036;-64
2022/04/04 00:24:58;;;;;;;4.72;3.65;;;;;;;;;;5107117;28;20107;-63
2022/04/04 00:27:24;;;;;;;8.85;3.90;;;;;;;;;;5095079;28;20129;-62
2022/04/04 00:29:50;;;;;;;7.25;3.35;;;;;;;;;;5086669;28;20041;-63
2022/04/04 00:32:16;;;;;;;11.20;3.58;;;;;;;;;;5086715;28;20044;-63
2022/04/04 00:34:42;;;;;;;6.32;3.47;;;;;;;;;;5086832;28;20054;-62
2022/04/04 00:37:08;;;;;;;7.80;3.42;;;;;;;;;;5095852;28;20037;-62
2022/04/04 00:39:34;;;;;;;6.18;3.28;;;;;;;;;;5106818;28;20065;-63
2022/04/04 00:42:01;;;;;;;7.75;3.83;;;;;;;;;;5106596;28;20587;-63
2022/04/04 00:44:27;;;;;;;8.25;3.35;;;;;;;;;;5106648;28;20055;-63
2022/04/04 00:46:53;;;;;;;6.07;3.63;;;;;;;;;;5104768;28;20132;-63
2022/04/04 00:49:19;;;;;;;6.43;3.25;;;;;;;;;;5106494;28;20051;-63
2022/04/04 00:51:45;;;;;;;6.00;4.00;;;;;;;;;;5105544;28;20051;-63
2022/04/04 00:54:13;;;;;;;5.95;3.95;;;;;;;;;;5106213;28;20052;-62
2022/04/04 00:56:39;;;;;;;9.40;3.67;;;;;;;;;;5104475;28;20049;-63
2022/04/04 00:59:05;;;;;;;8.32;4.00;;;;;;;;;;5104761;28;20059;-62
2022/04/04 01:01:34;;;;;;;6.22;3.30;;;;;;;;;;5106046;28;20070;-62
2022/04/04 01:04:01;;;;;;;5.90;3.78;;;;;;;;;;5106687;28;20032;-62
2022/04/04 01:06:27;;;;;;;7.22;4.10;;;;;;;;;;5088274;28;20048;-63
2022/04/04 01:08:54;;;;;;;12.13;4.90;;;;;;;;;;5085785;28;20097;-63
2022/04/04 01:11:20;;;;;;;5.72;4.30;;;;;;;;;;5085951;28;20044;-63
2022/04/04 01:13:47;;;;;;;6.75;4.40;;;;;;;;;;5085626;28;20120;-63
2022/04/04 01:16:14;;;;;;;7.38;4.63;;;;;;;;;;5099954;28;20631;-63
2022/04/04 01:18:40;;;;;;;7.88;5.47;;;;;;;;;;5105954;28;20040;-64
2022/04/04 01:21:06;;;;;;;7.88;5.50;;;;;;;;;;5105063;28;20043;-62
2022/04/04 01:23:35;;;;;;;10.52;5.28;;;;;;;;;;5105552;28;20046;-62
2022/04/04 01:26:02;;;;;;;6.55;4.85;;;;;;;;;;5103439;28;20048;-62
2022/04/04 01:28:28;;;;;;;9.52;6.03;;;;;;;;;;5105765;28;20036;-63
2022/04/04 01:30:54;;;;;;;11.18;6.25;;;;;;;;;;5105209;28;20345;-63
2022/04/04 01:33:20;;;;;;;11.55;7.57;;;;;;;;;;5105735;28;20079;-64
2022/04/04 01:35:46;;;;;;;10.13;7.03;;;;;;;;;;5090236;28;20527;-63
2022/04/04 01:38:12;;;;;;;9.60;6.60;;;;;;;;;;5084529;28;20051;-63
2022/04/04 01:40:39;;;;;;;10.38;6.53;;;;;;;;;;5083818;28;20471;-62
2022/04/04 01:43:05;;;;;;;10.43;6.82;;;;;;;;;;5084944;28;20064;-63
2022/04/04 01:48:16;;;;;;;12.32;8.40;;;;;;;;;;5086333;28;20055;-62
2022/04/04 01:50:42;;;;;;;11.75;7.95;;;;;;;;;;5084710;28;20602;-64
2022/04/04 01:53:27;;;;;;;12.82;8.82;;;;;;;;;;5084242;28;20040;-63
2022/04/04 01:55:54;;;;;;;12.35;7.78;;;;;;;;;;5100344;28;20044;-62
2022/04/04 01:58:20;;;;;;;15.30;9.25;;;;;;;;;;5084902;28;20041;-63
2022/04/04 02:00:46;;;;;;;23.23;10.40;;;;;;;;;;5083432;28;20488;-63
2022/04/04 02:03:12;;;;;;;18.50;10.23;;;;;;;;;;5085087;28;20119;-63
2022/04/04 02:05:39;;;;;;;18.17;11.35;;;;;;;;;;5101347;28;20126;-63
2022/04/04 02:08:05;;;;;;;18.63;11.40;;;;;;;;;;5104393;28;20058;-63
2022/04/04 02:10:32;;;;;;;16.77;10.57;;;;;;;;;;5104944;28;20044;-64
2022/04/04 02:12:58;;;;;;;17.23;11.80;;;;;;;;;;5104710;28;20069;-63
2022/04/04 02:15:24;;;;;;;23.20;12.82;;;;;;;;;;5090019;28;20051;-63
2022/04/04 02:17:51;;;;;;;20.60;13.85;;;;;;;;;;5084748;28;20056;-63
2022/04/04 02:20:18;;;;;;;19.00;13.15;;;;;;;;;;5084313;28;20486;-63
2022/04/04 02:22:45;;;;;;;21.63;12.93;;;;;;;;;;5082476;28;20059;-65
2022/04/04 02:25:12;;;;;;;14.65;11.15;;;;;;;;;;5101253;28;20047;-63
2022/04/04 02:27:38;;;;;;;18.83;12.73;;;;;;;;;;5104464;28;20044;-64
2022/04/04 02:30:05;;;;;;;19.00;11.35;;;;;;;;;;5103176;28;20111;-64
2022/04/04 02:32:31;;;;;;;22.02;10.88;;;;;;;;;;5104466;28;20085;-63
2022/04/04 02:34:57;;;;;;;16.77;11.82;;;;;;;;;;5103836;28;20158;-63
2022/04/04 02:37:23;;;;;;;16.15;10.02;;;;;;;;;;5104224;28;20036;-63
2022/04/04 02:39:49;;;;;;;19.38;11.82;;;;;;;;;;5104265;28;20069;-63
2022/04/04 02:42:16;;;;;;;17.88;11.45;;;;;;;;;;5104116;28;20067;-62
2022/04/04 02:44:42;;;;;;;17.77;11.93;;;;;;;;;;5090854;28;20093;-62
2022/04/04 02:47:08;;;;;;;18.48;12.07;;;;;;;;;;5084267;28;20075;-64
2022/04/04 02:49:34;;;;;;;17.70;12.57;;;;;;;;;;5084216;28;20058;-64
2022/04/04 02:52:00;;;;;;;19.50;13.00;;;;;;;;;;5087332;28;20046;-63
2022/04/04 02:54:26;;;;;;;16.83;12.07;;;;;;;;;;5103853;28;20040;-63
2022/04/04 02:56:53;;;;;;;19.75;11.55;;;;;;;;;;5104094;28;20048;-63
2022/04/04 02:59:19;;;;;;;19.42;13.27;;;;;;;;;;5104352;28;20048;-64
2022/04/04 03:01:48;;;;;;;17.48;11.15;;;;;;;;;;5101965;28;20103;-63
2022/04/04 03:04:18;;;;;;;15.15;11.90;;;;;;;;;;5103218;28;20044;-63
2022/04/04 03:06:45;;;;;;;19.98;13.10;;;;;;;;;;5103503;28;20083;-63
2022/04/04 03:09:11;;;;;;;16.42;11.65;;;;;;;;;;5104187;28;20054;-63
2022/04/04 03:11:38;;;;;;;18.17;12.77;;;;;;;;;;5102966;28;20051;-64
2022/04/04 03:14:05;;;;;;;20.83;12.40;;;;;;;;;;5088207;28;20052;-63
2022/04/04 03:16:31;;;;;;;17.37;12.30;;;;;;;;;;5087648;28;20071;-63
2022/04/04 03:18:59;;;;;;;22.73;13.02;;;;;;;;;;5087886;28;20064;-63
2022/04/04 03:21:25;;;;;;;19.70;13.00;;;;;;;;;;5087134;28;20108;-64
2022/04/04 03:23:51;;;;;;;24.60;12.40;;;;;;;;;;5088066;28;20048;-63
2022/04/04 03:26:17;;;;;;;20.77;11.32;;;;;;;;;;5088488;28;20063;-62
2022/04/04 03:28:43;;;;;;;23.33;13.27;;;;;;;;;;5088215;28;20101;-62
2022/04/04 03:31:10;;;;;;;19.52;13.27;;;;;;;;;;5087075;28;20392;-63
2022/04/04 03:33:37;;;;;;;19.73;13.50;;;;;;;;;;5087874;28;20053;-63
2022/04/04 03:36:03;;;;;;;22.38;13.45;;;;;;;;;;5088419;28;20049;-64
2022/04/04 03:38:29;;;;;;;20.67;12.30;;;;;;;;;;5107549;28;20059;-63
2022/04/04 03:40:56;;;;;;;21.73;13.05;;;;;;;;;;5107504;28;20062;-64
2022/04/04 03:43:22;;;;;;;20.65;13.57;;;;;;;;;;5107917;28;20051;-64
2022/04/04 03:45:49;;;;;;;25.33;13.90;;;;;;;;;;5093351;28;20045;-64
2022/04/04 03:48:15;;;;;;;24.25;14.25;;;;;;;;;;5087309;28;20049;-63
2022/04/04 03:50:43;;;;;;;20.60;14.52;;;;;;;;;;5087256;28;20458;-64
2022/04/04 03:53:09;;;;;;;;;;;;;;;;;;5087125;28;20040;-63
2022/04/04 03:55:39;;;;;;;25.98;14.27;;;;;;;;;;5097620;28;20280;-63
2022/04/04 03:58:05;;;;;;;25.38;13.68;;;;;;;;;;5107713;28;20078;-63
2022/04/04 04:00:32;;;;;;;22.52;14.88;;;;;;;;;;5107014;28;20111;-64
2022/04/04 04:02:58;;;;;;;30.17;16.92;;;;;;;;;;5107138;28;20052;-63
2022/04/04 04:05:24;;;;;;;24.92;15.80;;;;;;;;;;5098017;28;20114;-63
2022/04/04 04:07:52;;;;;;;35.22;16.55;;;;;;;;;;5086442;28;20423;-64
2022/04/04 04:10:18;;;;;;;25.35;15.75;;;;;;;;;;5086738;28;20132;-63
2022/04/04 04:12:45;;;;;;;31.63;17.42;;;;;;;;;;5087018;28;20516;-64
2022/04/04 04:15:23;;;;;;;34.83;19.25;;;;;;;;;;5086914;28;20044;-64
2022/04/04 04:17:52;;;;;;;28.80;16.98;;;;;;;;;;5091454;28;20040;-63
2022/04/04 04:20:29;;;;;;;31.35;18.42;;;;;;;;;;5092941;28;20068;-64
2022/04/04 04:22:55;;;;;;;25.20;15.52;;;;;;;;;;5094347;28;20068;-64
2022/04/04 04:25:22;;;;;;;33.03;17.23;;;;;;;;;;5090993;28;20065;-64
2022/04/04 04:27:49;;;;;;;39.22;18.27;;;;;;;;;;5101149;28;20044;-64
2022/04/04 04:30:16;;;;;;;25.85;16.10;;;;;;;;;;5103813;28;20052;-63
2022/04/04 04:32:42;;;;;;;27.38;16.50;;;;;;;;;;5094478;28;20423;-64
2022/04/04 04:35:09;;;;;;;28.60;19.20;;;;;;;;;;5086372;28;20075;-64
2022/04/04 04:37:35;;;;;;;29.25;20.17;;;;;;;;;;5090642;28;20047;-65
2022/04/04 04:40:01;;;;;;;37.95;21.20;;;;;;;;;;5086223;28;20078;-65
2022/04/04 04:42:27;;;;;;;39.08;18.52;;;;;;;;;;5099813;28;20099;-66
2022/04/04 04:44:54;;;;;;;32.75;21.35;;;;;;;;;;5095726;28;20059;-65
2022/04/04 04:47:20;;;;;;;28.38;17.83;;;;;;;;;;5087184;28;20393;-65
2022/04/04 04:49:48;;;;;;;29.75;18.65;;;;;;;;;;5093302;28;20036;-64
2022/04/04 04:52:14;;;;;;;29.70;21.10;;;;;;;;;;5105290;28;20511;-64
2022/04/04 04:54:42;;;;;;;27.30;16.45;;;;;;;;;;5096802;28;20040;-66
2022/04/04 04:57:08;;;;;;;;;;;;;;;;;;5106437;28;20088;-64
2022/04/04 04:59:34;;;;;;;21.02;16.00;;;;;;;;;;5106135;28;19923;-65
2022/04/04 05:02:01;;;;;;;32.55;16.98;;;;;;;;;;5105945;28;20044;-67
2022/04/04 05:04:27;;;;;;;30.85;19.23;;;;;;;;;;5105439;28;20032;-66
2022/04/04 05:06:53;;;;;;;17.92;12.82;;;;;;;;;;5105301;28;20499;-65
2022/04/04 05:09:19;;;;;;;27.70;15.95;;;;;;;;;;5106023;28;20098;-67
2022/04/04 05:11:45;;;;;;;18.67;13.52;;;;;;;;;;5105735;28;20048;-65
2022/04/04 05:14:15;;;;;;;26.50;13.10;;;;;;;;;;5105574;28;20036;-65
2022/04/04 05:16:44;;;;;;;24.58;13.18;;;;;;;;;;5105436;28;20428;-66
2022/04/04 05:19:16;;;;;;;23.90;14.73;;;;;;;;;;5092550;28;20096;-66
2022/04/04 05:21:43;;;;;;;26.88;15.32;;;;;;;;;;5084648;28;20048;-65
2022/04/04 05:24:09;;;;;;;21.27;12.20;;;;;;;;;;5085313;28;20044;-67
2022/04/04 05:26:36;;;;;;;20.92;13.95;;;;;;;;;;5085359;28;20104;-66
2022/04/04 05:29:02;;;;;;;27.10;14.23;;;;;;;;;;5086247;28;20068;-66
2022/04/04 05:31:30;;;;;;;20.38;12.20;;;;;;;;;;5084766;28;20053;-66
2022/04/04 05:33:57;;;;;;;;;;;;;;;;;;5102804;28;20048;-66
2022/04/04 05:36:24;;;;;;;14.65;10.18;;;;;;;;;;5104860;28;19920;-66
2022/04/04 05:38:50;;;;;;;16.88;10.50;;;;;;;;;;5105319;28;20044;-65
2022/04/04 05:41:17;;;;;;;18.33;11.30;;;;;;;;;;5101973;28;20043;-66
2022/04/04 05:43:44;;;;;;;16.90;11.02;;;;;;;;;;5083931;28;20057;-65
2022/04/04 05:46:12;;;;;;;14.60;11.18;;;;;;;;;;5084566;28;20052;-65
2022/04/04 05:48:38;;;;;;;18.73;11.00;;;;;;;;;;5092907;28;20044;-66
2022/04/04 05:51:04;;;;;;;19.27;11.68;;;;;;;;;;5091727;28;20063;-66
2022/04/04 05:53:30;;;;;;;15.85;9.80;;;;;;;;;;5084968;28;20048;-67
2022/04/04 05:55:57;;;;;;;20.35;11.45;;;;;;;;;;5083681;28;20389;-68
2022/04/04 05:58:23;;;;;;;16.48;11.02;;;;;;;;;;5085065;28;20127;-68
2022/04/04 06:00:49;;;;;;;16.67;9.52;;;;;;;;;;5084209;28;20041;-66
2022/04/04 06:03:15;;;;;;;16.20;8.77;;;;;;;;;;5084713;28;20555;-68
2022/04/04 06:05:41;;;;;;;16.67;9.70;;;;;;;;;;5084739;28;20048;-68
2022/04/04 06:08:08;;;;;;;16.55;8.90;;;;;;;;;;5082767;28;20044;-67
2022/04/04 06:10:34;;;;;;;10.02;7.28;;;;;;;;;;5100762;28;20110;-67
2022/04/04 06:13:00;;;;;;;12.23;6.90;;;;;;;;;;5104607;28;20073;-68
2022/04/04 06:15:26;;;;;;;10.68;4.40;;;;;;;;;;5104304;28;20448;-67
2022/04/04 06:17:52;;;;;;;8.60;5.15;;;;;;;;;;5104634;28;20403;-68
2022/04/04 06:20:19;;;;;;;17.05;6.15;;;;;;;;;;5089969;28;20063;-68
2022/04/04 06:22:46;;;;;;;11.43;5.25;;;;;;;;;;5083425;28;20056;-68
2022/04/04 06:25:12;;;;;;;12.40;5.88;;;;;;;;;;5084656;28;20048;-68
2022/04/04 06:27:42;;;;;;;6.10;3.70;;;;;;;;;;5084325;28;20562;-67
2022/04/04 06:30:08;;;;;;;7.25;4.43;;;;;;;;;;5096179;28;20084;-68
2022/04/04 06:32:34;;;;;;;9.05;5.18;;;;;;;;;;5104384;28;20071;-68
2022/04/04 06:35:04;;;;;;;9.52;4.30;;;;;;;;;;5104394;28;20040;-68
2022/04/04 06:37:31;;;;;;;12.95;5.00;;;;;;;;;;5103939;28;20127;-68
2022/04/04 06:39:57;;;;;;;11.98;5.60;;;;;;;;;;5093480;28;20070;-67
2022/04/04 06:42:23;;;;;;;9.82;5.60;;;;;;;;;;5083786;28;20052;-67
2022/04/04 06:44:50;;;;;;;8.23;3.92;;;;;;;;;;5083924;28;20080;-67
2022/04/04 06:47:16;;;;;;;5.22;4.28;;;;;;;;;;5083599;28;20187;-67
2022/04/04 06:49:42;;;;;;;10.50;5.00;;;;;;;;;;5084407;28;20049;-67
2022/04/04 06:52:08;;;;;;;8.80;4.70;;;;;;;;;;5083239;28;20056;-66
2022/04/04 06:54:35;;;;;;;13.15;4.80;;;;;;;;;;5084174;28;20044;-67
2022/04/04 06:57:01;;;;;;;12.07;4.38;;;;;;;;;;5083771;28;20098;-66
2022/04/04 06:59:29;;;;;;;9.93;5.03;;;;;;;;;;5084890;28;20044;-67
2022/04/04 07:01:55;;;;;;;7.20;4.55;;;;;;;;;;5083462;28;20041;-67
2022/04/04 07:04:21;;;;;;;10.73;5.88;;;;;;;;;;5082738;28;20095;-66
2022/04/04 07:06:47;;;;;;;10.25;5.57;;;;;;;;;;5083667;28;20071;-66
2022/04/04 07:09:13;;;;;;;10.77;5.68;;;;;;;;;;5100646;28;20048;-66
2022/04/04 07:11:40;;;;;;;11.50;5.85;;;;;;;;;;5104045;28;20101;-66
2022/04/04 07:14:06;;;;;;;9.02;5.95;;;;;;;;;;5103918;28;20040;-66
2022/04/04 07:16:33;;;;;;;8.07;5.68;;;;;;;;;;5103843;28;20051;-66
2022/04/04 07:18:59;;;;;;;10.85;6.47;;;;;;;;;;5084784;28;20044;-66
2022/04/04 07:21:25;;;;;;;10.25;6.45;;;;;;;;;;5097742;28;20048;-66
2022/04/04 07:23:51;;;;;;;14.80;8.85;;;;;;;;;;5103933;28;20075;-66
2022/04/04 07:26:19;;;;;;;15.48;8.23;;;;;;;;;;5103630;28;20130;-66
2022/04/04 07:28:49;;;;;;;12.18;8.23;;;;;;;;;;5085853;28;20128;-67
2022/04/04 07:31:15;;;;;;;11.82;7.68;;;;;;;;;;5083304;28;20048;-67
2022/04/04 07:33:41;;;;;;;16.55;9.05;;;;;;;;;;5083739;28;20048;-66
2022/04/04 07:36:08;;;;;;;11.55;8.32;;;;;;;;;;5083263;28;20074;-68
2022/04/04 07:38:34;;;;;;;16.88;9.80;;;;;;;;;;5083633;28;20409;-68
2022/04/04 07:41:00;;;;;;;16.48;11.10;;;;;;;;;;5083503;28;20128;-68
2022/04/04 07:43:27;;;;;;;16.95;9.45;;;;;;;;;;5083528;28;20084;-69
2022/04/04 07:45:53;;;;;;;17.50;9.57;;;;;;;;;;5084008;28;20398;-68
2022/04/04 07:48:19;;;;;;;14.68;9.15;;;;;;;;;;5087771;28;20143;-68
2022/04/04 07:50:45;;;;;;;17.08;9.23;;;;;;;;;;5087444;28;20137;-68
2022/04/04 07:53:12;;;;;;;19.63;11.55;;;;;;;;;;5091727;28;20037;-69
2022/04/04 07:55:39;;;;;;;16.73;9.40;;;;;;;;;;5104035;28;20074;-68
2022/04/04 07:58:05;;;;;;;17.02;9.23;;;;;;;;;;5103619;28;20079;-69
2022/04/04 08:00:32;;;;;;;15.35;9.57;;;;;;;;;;5094084;28;20090;-70
2022/04/04 08:02:58;;;;;;;15.93;9.88;;;;;;;;;;5097853;28;20040;-69
2022/04/04 08:05:26;;;;;;;15.13;8.00;;;;;;;;;;5087107;28;20048;-68
2022/04/04 08:07:52;;;;;;;;;;;;;;;;;;5087411;28;20045;-69
2022/04/04 08:10:19;;;;;;;15.52;8.27;;;;;;;;;;5088462;28;19960;-69
2022/04/04 08:12:50;;;;;;;16.95;8.38;;;;;;;;;;5087404;28;20048;-70
2022/04/04 08:15:16;;;;;;;11.65;7.97;;;;;;;;;;5106412;28;20051;-69
2022/04/04 08:17:43;;;;;;;11.88;6.40;;;;;;;;;;5106912;28;20100;-68
2022/04/04 08:20:10;;;;;;;13.45;8.38;;;;;;;;;;5101247;28;20101;-69
2022/04/04 08:22:40;;;;;;;17.17;8.75;;;;;;;;;;5086424;28;20576;-69
2022/04/04 08:25:06;;;;;;;15.13;9.25;;;;;;;;;;5087120;28;20142;-69
2022/04/04 08:27:32;;;;;;;9.15;6.10;;;;;;;;;;5086863;28;20109;-68
2022/04/04 08:29:59;;;;;;;13.65;7.82;;;;;;;;;;5092351;28;20047;-69
2022/04/04 08:32:25;;;;;;;9.43;6.50;;;;;;;;;;5106722;28;20044;-69
2022/04/04 08:34:51;;;;;;;12.07;7.30;;;;;;;;;;5087014;28;20120;-66
2022/04/04 08:37:17;;;;;;;8.52;5.50;;;;;;;;;;5089456;28;20051;-66
2022/04/04 08:39:47;;;;;;;6.03;5.13;;;;;;;;;;5092284;28;20040;-65
2022/04/04 08:42:15;;;;;;;7.82;4.88;;;;;;;;;;5106268;28;20113;-67
2022/04/04 08:44:42;;;;;;;8.35;4.75;;;;;;;;;;5097352;28;20091;-66
2022/04/04 08:47:09;;;;;;;7.10;4.27;;;;;;;;;;5096127;28;20584;-68
2022/04/04 08:49:35;;;;;;;7.80;4.68;;;;;;;;;;5086327;28;20048;-66
2022/04/04 08:52:02;;;;;;;8.15;4.32;;;;;;;;;;5089196;28;20119;-68
2022/04/04 08:54:28;;;;;;;5.77;3.93;;;;;;;;;;5087248;28;20040;-68
2022/04/04 08:56:54;;;;;;;5.97;3.45;;;;;;;;;;5101685;28;20298;-66
2022/04/04 08:59:21;;;;;;;9.68;3.70;;;;;;;;;;5090937;28;20045;-66
2022/04/04 09:01:47;;;;;;;6.57;3.67;;;;;;;;;;5096031;28;20041;-67
2022/04/04 09:04:17;;;;;;;6.60;4.13;;;;;;;;;;5096224;28;20052;-67
2022/04/04 09:06:48;;;;;;;4.93;3.65;;;;;;;;;;5085894;28;20109;-67
2022/04/04 09:09:27;;;;;;;5.53;4.30;;;;;;;;;;5094995;28;20047;-67
2022/04/04 09:11:54;;;;;;;6.80;3.78;;;;;;;;;;5104777;28;20044;-66
2022/04/04 09:14:24;;;;;;;4.80;3.47;;;;;;;;;;5095895;28;20052;-66
2022/04/04 09:16:54;;;;;;;5.22;4.03;;;;;;;;;;5104433;28;20095;-66
2022/04/04 09:19:29;;;;;;;7.30;3.63;;;;;;;;;;5101733;28;20055;-66
2022/04/04 09:21:56;;;;;;;7.05;3.90;;;;;;;;;;5090394;28;20608;-67
2022/04/04 09:24:22;;;;;;;7.30;2.83;;;;;;;;;;5102408;28;20420;-67
2022/04/04 09:26:50;;;;;;;7.13;3.22;;;;;;;;;;5096255;28;20107;-66
2022/04/04 09:29:16;;;;;;;;;;;;;;;;;;5094607;28;20111;-66
2022/04/04 09:31:52;;;;;;;5.63;3.10;;;;;;;;;;5101869;28;19920;-67
2022/04/04 09:34:19;;;;;;;10.45;4.20;;;;;;;;;;5098927;28;20058;-67
2022/04/04 09:36:46;;;;;;;6.90;3.30;;;;;;;;;;5088486;28;20044;-66
2022/04/04 09:39:13;;;;;;;5.90;2.67;;;;;;;;;;5085040;28;20323;-69
2022/04/04 09:41:40;;;;;;;8.57;3.72;;;;;;;;;;5088351;28;20135;-67
2022/04/04 09:44:07;;;;;;;6.47;3.50;;;;;;;;;;5095531;28;20056;-69
2022/04/04 09:46:38;;;;;;;4.53;2.92;;;;;;;;;;5105199;28;20193;-66
2022/04/04 09:49:05;;;;;;;6.85;3.20;;;;;;;;;;5097426;28;20118;-68
2022/04/04 09:51:37;;;;;;;4.13;3.72;;;;;;;;;;5104710;28;20055;-63
2022/04/04 09:54:05;;;;;;;3.85;2.53;;;;;;;;;;5093105;28;20043;-65
2022/04/04 09:56:31;;;;;;;7.95;3.70;;;;;;;;;;5095635;28;20113;-67
2022/04/04 09:58:59;;;;;;;6.15;3.20;;;;;;;;;;5098371;28;20041;-68
2022/04/04 10:01:26;;;;;;;3.95;2.35;;;;;;;;;;5090251;28;20062;-66
2022/04/04 10:03:53;;;;;;;8.70;3.88;;;;;;;;;;5084956;28;20044;-67
2022/04/04 10:06:20;;;;;;;6.30;4.03;;;;;;;;;;5090409;28;20047;-66
2022/04/04 10:08:46;;;;;;;4.82;3.30;;;;;;;;;;5099537;28;20046;-66
2022/04/04 10:11:13;;;;;;;5.78;2.72;;;;;;;;;;5099615;28;20070;-67
2022/04/04 10:13:39;;;;;;;10.23;2.92;;;;;;;;;;5100651;28;20032;-66
2022/04/04 10:16:06;;;;;;;3.22;2.55;;;;;;;;;;5100619;28;20040;-73
2022/04/04 10:18:32;;;;;;;4.35;2.50;;;;;;;;;;5100901;28;20031;-72
2022/04/04 10:20:59;;;;;;;5.57;2.80;;;;;;;;;;5101976;28;20107;-67
2022/04/04 10:23:27;;;;;;;5.25;2.45;;;;;;;;;;5094738;28;20040;-69
2022/04/04 10:25:53;;;;;;;7.07;2.97;;;;;;;;;;5083786;28;20132;-67
2022/04/04 10:28:29;;;;;;;6.35;2.72;;;;;;;;;;5087744;28;20068;-67
2022/04/04 10:30:59;;;;;;;4.05;2.20;;;;;;;;;;5089710;28;20044;-66
2022/04/04 10:33:26;;;;;;;6.63;2.95;;;;;;;;;;5097524;28;20046;-68
2022/04/04 10:36:02;;;;;;;7.67;2.77;;;;;;;;;;5092020;28;20104;-68
2022/04/04 10:38:32;;;;;;;5.05;2.58;;;;;;;;;;5090264;28;20036;-66
2022/04/04 10:41:01;;;;;;;5.15;2.75;;;;;;;;;;5101561;28;20055;-66
2022/04/04 10:43:31;;;;;;;6.05;2.83;;;;;;;;;;5068923;28;20126;-70
2022/04/04 10:45:58;;;;;;;4.65;2.78;;;;;;;;;;5095823;28;20078;-69
2022/04/04 10:48:35;;;;;;;2.90;2.25;;;;;;;;;;5097391;28;20043;-70
2022/04/04 10:51:03;;;;;;;3.63;2.33;;;;;;;;;;5086408;28;20059;-70
2022/04/04 10:53:38;;;;;;;4.57;1.73;;;;;;;;;;5087486;28;20130;-66
2022/04/04 10:56:09;;;;;;;5.95;2.17;;;;;;;;;;5084898;28;20052;-69
2022/04/04 10:58:35;;;;;;;7.32;2.60;;;;;;;;;;5099167;28;20544;-69
2022/04/04 11:01:18;;;;;;;4.97;2.42;;;;;;;;;;5084012;28;20053;-67
2022/04/04 11:03:44;;;;;;;4.85;2.00;;;;;;;;;;5103415;28;20048;-65
2022/04/04 11:09:02;;;;;;;3.10;1.33;;;;;;;;;;5087002;28;20135;-72
2022/04/04 11:11:47;;;;;;;1.73;1.48;;;;;;;;;;5093683;28;20052;-71
2022/04/04 11:14:19;;;;;;;2.75;1.52;;;;;;;;;;5102443;28;20049;-73
2022/04/04 11:17:03;;;;;;;4.78;1.50;;;;;;;;;;5100309;28;20040;-66
2022/04/04 11:19:29;;;;;;;2.00;1.20;;;;;;;;;;5090609;28;20044;-68
2022/04/04 11:21:55;;;;;;;6.30;1.42;;;;;;;;;;5099798;28;20055;-67
2022/04/04 11:24:22;;;;;;;2.45;1.55;;;;;;;;;;5096889;28;20073;-68
2022/04/04 11:26:48;;;;;;;3.15;1.40;;;;;;;;;;5088473;28;20040;-67
2022/04/04 11:29:19;;;;;;;3.55;1.40;;;;;;;;;;5083691;28;20074;-68
2022/04/04 11:31:48;;;;;;;4.85;1.88;;;;;;;;;;5084334;28;20083;-68
2022/04/04 11:34:14;;;;;;;2.17;1.33;;;;;;;;;;5100022;28;20084;-69
2022/04/04 11:36:41;;;;;;;1.35;1.08;;;;;;;;;;5092409;28;20055;-68
2022/04/04 11:39:09;;;;;;;3.42;1.13;;;;;;;;;;5090708;28;20045;-66
2022/04/04 11:41:46;;;;;;;;;;;;;;;;;;5096263;28;20044;-69
2022/04/04 11:44:22;;;;;;;5.13;1.40;;;;;;;;;;5090826;28;19920;-66
2022/04/04 11:47:05;;;;;;;2.47;0.85;;;;;;;;;;5100924;28;20048;-71
2022/04/04 11:49:37;;;;;;;5.95;1.35;;;;;;;;;;5087244;28;20048;-71
2022/04/04 11:52:06;;;;;;;5.80;1.30;;;;;;;;;;5099643;28;20048;-71
2022/04/04 11:54:51;;;;;;;1.40;1.00;;;;;;;;;;5105064;28;20052;-72
2022/04/04 11:57:18;;;;;;;2.40;1.13;;;;;;;;;;5094704;28;20052;-68
2022/04/04 11:59:45;;;;;;;1.70;1.07;;;;;;;;;;5103767;28;20094;-70
2022/04/04 12:02:13;;;;;;;2.53;1.50;;;;;;;;;;5104268;28;20044;-67
2022/04/04 12:04:40;;;;;;;3.13;1.42;;;;;;;;;;5105833;28;20274;-68
2022/04/04 12:07:07;;;;;;;2.80;1.20;;;;;;;;;;5091257;28;20110;-69
2022/04/04 12:09:35;;;;;;;4.80;1.38;;;;;;;;;;5087476;28;20040;-72
2022/04/04 12:12:01;;;;;;;;;;;;;;;;;;5099474;28;20039;-70
2022/04/04 12:14:35;;;;;;;3.55;1.20;;;;;;;;;;5093031;28;20462;-70
2022/04/04 12:17:01;;;;;;;1.27;1.00;;;;;;;;;;5085161;28;20040;-69
2022/04/04 12:19:28;;;;;;;2.75;1.38;;;;;;;;;;5087929;28;20044;-70
2022/04/04 12:21:55;;;;;;;4.57;1.30;;;;;;;;;;5092776;28;20044;-69
2022/04/04 12:27:12;;;;;;;1.20;1.10;;;;;;;;;;5090111;28;20049;-68
2022/04/04 12:29:45;;;;;;;2.03;1.40;;;;;;;;;;5088316;28;20036;-67
2022/04/04 12:32:20;;;;;;;2.72;1.70;;;;;;;;;;5086497;28;20036;-72
2022/04/04 12:34:55;;;;;;;1.80;1.48;;;;;;;;;;5090082;28;20154;-65
2022/04/04 12:37:31;;;;;;;6.45;2.15;;;;;;;;;;5096704;28;20049;-69
2022/04/04 12:40:12;;;;;;;3.55;1.67;;;;;;;;;;5100738;28;20052;-71
2022/04/04 12:42:38;;;;;;;4.13;1.88;;;;;;;;;;5104113;28;20115;-69
2022/04/04 12:45:05;;;;;;;4.95;1.92;;;;;;;;;;5087492;28;20048;-70
2022/04/04 12:47:31;;;;;;;1.80;1.10;;;;;;;;;;5089719;28;20035;-70
2022/04/04 12:50:16;;;;;;;1.50;1.25;;;;;;;;;;5085268;28;20072;-69
2022/04/04 12:52:59;;;;;;;3.03;1.48;;;;;;;;;;5085979;28;20130;-72
2022/04/04 12:55:25;;;;;;;3.53;2.08;;;;;;;;;;5086160;28;20048;-68
2022/04/04 12:57:51;;;;;;;3.15;1.90;;;;;;;;;;5105169;28;20043;-68
2022/04/04 13:00:38;;;;;;;5.55;1.95;;;;;;;;;;5092643;28;20503;-69
2022/04/04 13:03:21;;;;;;;2.63;2.08;;;;;;;;;;5092669;28;20052;-68
2022/04/04 13:05:48;;;;;;;3.40;1.90;;;;;;;;;;5086958;28;20492;-73
2022/04/04 13:08:21;;;;;;;5.25;1.95;;;;;;;;;;5094883;28;20059;-73
2022/04/04 13:11:24;;;;;;;4.70;2.70;;;;;;;;;;5096657;28;20099;-69
2022/04/04 13:14:06;;;;;;;3.10;2.13;;;;;;;;;;5041685;28;20049;-69
2022/04/04 13:16:36;;;;;;;7.03;3.03;;;;;;;;;;5037610;28;20049;-73
2022/04/04 13:19:03;;;;;;;6.95;2.90;;;;;;;;;;5027588;28;20426;-68
2022/04/04 13:21:30;;;;;;;4.70;2.63;;;;;;;;;;5025452;28;20065;-67
2022/04/04 13:23:56;;;;;;;3.95;2.13;;;;;;;;;;5019666;28;20293;-68
2022/04/04 13:26:22;;;;;;;4.57;2.08;;;;;;;;;;5041553;28;20045;-69
2022/04/04 13:28:49;;;;;;;5.47;2.90;;;;;;;;;;5027011;28;20182;-68
2022/04/04 13:31:15;;;;;;;7.70;2.92;;;;;;;;;;5035629;28;20057;-66
2022/04/04 13:33:41;;;;;;;4.97;2.28;;;;;;;;;;5040300;28;20099;-70
2022/04/04 13:36:07;;;;;;;4.95;3.25;;;;;;;;;;5040209;28;20167;-73
2022/04/04 13:38:33;;;;;;;6.75;3.00;;;;;;;;;;5039127;28;20045;-72
2022/04/04 13:41:00;;;;;;;5.40;3.17;;;;;;;;;;5025441;28;20147;-71
2022/04/04 13:43:26;;;;;;;4.68;2.67;;;;;;;;;;5036336;28;20064;-67
2022/04/04 13:45:53;;;;;;;6.03;2.17;;;;;;;;;;5025858;28;20073;-68
2022/04/04 13:48:20;;;;;;;6.47;3.05;;;;;;;;;;5070274;28;20052;-66
2022/04/04 13:50:46;;;;;;;10.38;3.38;;;;;;;;;;5088768;28;20461;-67
2022/04/04 13:53:13;;;;;;;5.57;3.13;;;;;;;;;;5087871;28;20067;-65
2022/04/04 13:55:39;;;;;;;4.78;2.42;;;;;;;;;;5089772;28;20436;-65
2022/04/04 13:58:05;;;;;;;7.97;3.17;;;;;;;;;;5095060;28;20057;-67
2022/04/04 14:00:31;;;;;;;10.15;4.93;;;;;;;;;;5087638;28;20040;-71
2022/04/04 14:02:57;;;;;;;9.65;3.55;;;;;;;;;;5084899;28;20457;-69
2022/04/04 14:05:23;;;;;;;10.40;4.53;;;;;;;;;;5087323;28;20074;-68
2022/04/04 14:07:50;;;;;;;15.15;4.18;;;;;;;;;;5094836;28;20079;-67
2022/04/04 14:10:17;;;;;;;10.38;3.97;;;;;;;;;;5095924;28;20048;-70
2022/04/04 14:12:43;;;;;;;9.98;3.67;;;;;;;;;;5088661;28;20032;-66
2022/04/04 14:15:10;;;;;;;7.07;3.13;;;;;;;;;;5088694;28;20044;-66
2022/04/04 14:17:37;;;;;;;9.35;3.63;;;;;;;;;;5084677;28;20063;-69
2022/04/04 14:20:07;;;;;;;14.40;5.63;;;;;;;;;;5089206;28;20047;-71
2022/04/04 14:22:34;;;;;;;19.92;5.15;;;;;;;;;;5090056;28;20048;-73
2022/04/04 14:25:01;;;;;;;9.98;3.60;;;;;;;;;;5089767;28;20032;-73
2022/04/04 14:27:27;;;;;;;16.33;4.35;;;;;;;;;;5091953;28;20086;-70
2022/04/04 14:29:54;;;;;;;11.90;4.38;;;;;;;;;;5099926;28;20124;-71
2022/04/04 14:32:21;;;;;;;23.60;4.97;;;;;;;;;;5087648;28;20048;-67
2022/04/04 14:34:47;;;;;;;27.20;4.30;;;;;;;;;;5092126;28;20294;-70
2022/04/04 14:37:13;;;;;;;25.70;7.72;;;;;;;;;;5095475;28;20104;-68
2022/04/04 14:39:40;;;;;;;10.38;3.72;;;;;;;;;;5093143;28;20503;-66
2022/04/04 14:42:07;;;;;;;25.35;5.28;;;;;;;;;;5088791;28;20048;-70
2022/04/04 14:44:34;;;;;;;20.02;4.68;;;;;;;;;;5090239;28;20048;-66
2022/04/04 14:47:00;;;;;;;29.35;5.43;;;;;;;;;;5084520;28;20052;-66